Carrasco International /General C L Berisso Airport


Codes: SUMU/MVD
Name: Carrasco International /General C L Berisso Airport
City: Montevideo
Country: Uruguay
Elevation: 105 ft.
Wikipedia:

Photos at Carrasco International /General C L Berisso Airport


   Photos courtesy of SpottingLog. You can add your own sightings and photos by signing up for a free trial today.



No photos found.

Weather at Carrasco International /General C L Berisso Airport


Time (UTC)DescriptionTempratureWindCloud coverageVisibilityPressureHumidity
13-Jun-2024 03:00Clear Sky21°C11 mph, N0%10000m1006hPa94%
13-Jun-2024 06:00Scattered Clouds21°C13 mph, N33%10000m1006hPa89%
13-Jun-2024 09:00Broken Clouds20°C16 mph, N67%10000m1005hPa80%
13-Jun-2024 12:00Overcast Clouds20°C18 mph, N100%10000m1003hPa65%
13-Jun-2024 15:00Overcast Clouds22°C20 mph, N100%10000m1002hPa56%
13-Jun-2024 18:00Overcast Clouds23°C20 mph, N100%10000m999hPa59%
13-Jun-2024 21:00Overcast Clouds21°C16 mph, N100%10000m999hPa68%
14-Jun-2024 00:00Overcast Clouds20°C13 mph, N100%10000m1001hPa72%
14-Jun-2024 03:00Overcast Clouds20°C11 mph, NW100%10000m1002hPa74%
14-Jun-2024 06:00Overcast Clouds19°C4 mph, N100%10000m1003hPa81%
14-Jun-2024 09:00Overcast Clouds18°C4 mph, N97%10000m1003hPa85%
14-Jun-2024 12:00Light Rain18°C0 mph, SE98%10000m1004hPa87%
14-Jun-2024 15:00Moderate Rain16°C7 mph, E100%5648m1004hPa100%
14-Jun-2024 18:00Moderate Rain17°C2 mph, SW100%10000m1004hPa98%
14-Jun-2024 21:00Light Rain16°C7 mph, N100%0m1006hPa99%
15-Jun-2024 00:00Light Rain15°C9 mph, N100%0m1010hPa98%
15-Jun-2024 03:00Light Rain14°C9 mph, N100%0m1011hPa99%
15-Jun-2024 06:00Moderate Rain14°C16 mph, S100%6306m1013hPa95%
15-Jun-2024 09:00Light Rain14°C7 mph, SE100%10000m1014hPa92%
15-Jun-2024 12:00Light Rain13°C4 mph, SE100%10000m1017hPa90%
15-Jun-2024 15:00Clear Sky15°C4 mph, SE1%10000m1018hPa77%
15-Jun-2024 18:00Clear Sky16°C4 mph, S0%10000m1017hPa69%
15-Jun-2024 21:00Clear Sky14°C4 mph, S0%10000m1018hPa78%
16-Jun-2024 00:00Clear Sky13°C2 mph, E0%10000m1019hPa76%
16-Jun-2024 03:00Clear Sky13°C4 mph, E0%10000m1020hPa74%
16-Jun-2024 06:00Scattered Clouds13°C2 mph, E48%10000m1020hPa74%
16-Jun-2024 09:00Overcast Clouds12°C7 mph, E100%10000m1019hPa77%
16-Jun-2024 12:00Overcast Clouds13°C4 mph, E100%10000m1021hPa77%
16-Jun-2024 15:00Overcast Clouds14°C9 mph, E100%10000m1020hPa71%
16-Jun-2024 18:00Overcast Clouds14°C9 mph, E100%10000m1018hPa67%
16-Jun-2024 21:00Scattered Clouds12°C7 mph, SE35%10000m1018hPa78%
17-Jun-2024 00:00Few Clouds12°C7 mph, E19%10000m1019hPa81%
17-Jun-2024 03:00Clear Sky11°C7 mph, E3%10000m1018hPa82%
17-Jun-2024 06:00Clear Sky10°C4 mph, NE1%10000m1017hPa78%
17-Jun-2024 09:00Clear Sky9°C4 mph, NE2%10000m1017hPa76%
17-Jun-2024 12:00Clear Sky10°C7 mph, NE4%10000m1017hPa79%
17-Jun-2024 15:00Clear Sky14°C7 mph, NE0%10000m1016hPa68%
17-Jun-2024 18:00Clear Sky15°C7 mph, NE0%10000m1012hPa65%
17-Jun-2024 21:00Clear Sky14°C7 mph, E4%10000m1011hPa79%
18-Jun-2024 00:00Clear Sky13°C9 mph, NE7%10000m1011hPa86%